Sweeney, South Dakota
Current Conditions -  °F | °C
As of 1:53 PM on Monday 26 Jan 2015 (Local Time) from KPIR Reporting Station
Clear Clear  
Wind Chill: 55°   Ceiling: Unl
Heat Index: 55°   Visibility: 10mi
Dew Point: 31°   Wind: 14mph
Humidity: 40%   Direction: 280°W
Pressure: 29.98"   Gusts: NA
Location:  43.909°N, 100.128°W
Report Text: KPIR 261953Z AUTO 28012KT 10SM CLR 13/M01 A2998 RMK AO2 SLP159 T01281006
Loading
Personal Weather Stations






























Interactive Weather Map New forecast layout! Learn more

10-Day Weather Forecast

Advertisements
Track Severe Weather on mobile